Sidnaw, MI

5:37 AM EDT on April 25, 2015 (GMT -0400)
RAWS | | Change Station
CLOSE
Current Station
Personal Weather Station
Location: Covington, MI
Elevation: 1269 ft
Nearby Weather Stations

Elev 1269 ft 46.60 °N, 88.63 °W | Updated 30 minutes ago

Overcast
Overcast
25 °F
Feels Like 25 °F
N
0
Wind Variable Wind from North
Gusts 2.0 mph

Today
High -- | Low -- °F
--% Chance of Precip.
Yesterday
High -- | Low -- °F
Precip. -- in
6:50 AM 8:55 PM
Waxing Crescent, 44% visible
Pressure 29.94 in
Visibility 10.0 miles
Clouds Overcast 7500 ft
Windchill 25 °F
Dew Point 17 °F
Humidity 72%
Rainfall in
Snow Depth Not available.
UV 0 out of 12
Pollen 8.80 out of 12
Air Quality Not available.
Flu Activity Regional
METAR KLNL 250915Z AUTO 13004KT 10SM OVC075 03/M06 A2994 RMK AO2 T00251059

More Conditions Fewer Conditions

Pressure 29.94 in
Visibility 10.0 miles
Clouds Overcast 7500 ft
Windchill 25 °F
Dew Point 17 °F
Humidity 72%
Rainfall in
Snow Depth Not available.
UV 0 out of 12
Pollen 8.80 out of 12
Air Quality Not available.
Flu Activity Regional
METAR KLNL 250915Z AUTO 13004KT 10SM OVC075 03/M06 A2994 RMK AO2 T00251059

More Conditions Fewer Conditions

10-Day Weather Forecast

Almanac

Astronomy

Apr. 25, 2015 Rise Set
Actual Time
Civil Twilight
Nautical Twilight
Astronomical Twilight
Moon
Length of Visible Light
Length of Day
Tomorrow will be .
, % of the Moon is Illuminated

Today's Extremes

State Highs State Lows

Community

WunderPhotos

Upload Photos

1,816,630 photos uploaded!

WunderBlogs® & News

Nearby

Air Quality

  Air Quality AQ Index Pollutant
Not available.

Snow Depth

Station Depth Elevation

Earthquake Activity

City Distance Mag. Time & Date
Minimum magnitude displayed is 2.5.

Coastal Water Temperatures

Place Temperature

Stations

Nearby Weather Stations

Station Location Temp. Windchill Dew Point Humidity Wind Precip. Elev Updated Type